createdAt,value
2018-09-28T00:00:15.258Z,10.60
2018-09-28T00:01:51.622Z,9.80
2018-09-28T00:03:28.051Z,6.40
2018-09-28T00:05:03.954Z,9.60
2018-09-28T00:06:39.447Z,9.40
2018-09-28T00:08:16.120Z,10.20
2018-09-28T00:09:51.295Z,10.00
2018-09-28T00:11:28.235Z,7.40
2018-09-28T00:13:07.080Z,7.00
2018-09-28T00:14:42.900Z,7.00
2018-09-28T00:16:18.384Z,10.20
2018-09-28T00:17:53.457Z,10.00
2018-09-28T00:19:28.429Z,9.60
2018-09-28T00:21:06.350Z,7.00
2018-09-28T00:22:42.575Z,10.80
2018-09-28T00:24:20.924Z,10.80
2018-09-28T00:25:58.723Z,7.00
2018-09-28T00:27:33.770Z,10.80
2018-09-28T00:29:09.063Z,10.40
2018-09-28T00:30:44.970Z,9.20
2018-09-28T00:32:20.855Z,10.00
2018-09-28T00:33:56.090Z,12.20
2018-09-28T00:35:31.919Z,9.40
2018-09-28T00:37:07.240Z,9.20
2018-09-28T00:38:42.206Z,9.20
2018-09-28T00:40:18.102Z,10.40
2018-09-28T00:41:53.118Z,8.40
2018-09-28T00:43:28.734Z,9.60
2018-09-28T00:45:05.686Z,10.40
2018-09-28T00:46:42.355Z,9.60
2018-09-28T00:48:17.942Z,12.00
2018-09-28T00:49:53.535Z,9.40
2018-09-28T00:51:29.675Z,14.20
2018-09-28T00:53:05.502Z,9.00
2018-09-28T00:54:41.964Z,9.60
2018-09-28T00:56:17.482Z,11.60
2018-09-28T00:57:52.671Z,10.00
2018-09-28T00:59:28.092Z,9.40
2018-09-28T01:01:03.207Z,10.20
2018-09-28T01:02:38.929Z,11.80
2018-09-28T01:04:14.042Z,5.20
2018-09-28T01:05:49.203Z,12.20
2018-09-28T01:07:24.623Z,13.20
2018-09-28T01:08:59.998Z,12.20
2018-09-28T01:10:35.497Z,10.20
2018-09-28T01:12:11.107Z,12.20
2018-09-28T01:13:46.927Z,10.60
2018-09-28T01:15:22.017Z,7.60
2018-09-28T01:16:57.560Z,13.40
2018-09-28T01:18:33.034Z,11.20
2018-09-28T01:20:08.322Z,10.00
2018-09-28T01:21:43.742Z,10.40
2018-09-28T01:23:19.288Z,12.00
2018-09-28T01:24:54.667Z,11.20
2018-09-28T01:26:29.821Z,9.60
2018-09-28T01:28:05.188Z,10.60
2018-09-28T01:29:40.692Z,14.20
2018-09-28T01:31:15.763Z,11.20
2018-09-28T01:32:51.293Z,12.60
2018-09-28T01:34:26.498Z,15.20
2018-09-28T01:36:04.153Z,15.60
2018-09-28T01:37:39.568Z,15.00
2018-09-28T01:39:14.728Z,13.20
2018-09-28T01:40:49.960Z,16.80
2018-09-28T01:42:26.799Z,17.60
2018-09-28T01:44:02.088Z,10.60
2018-09-28T01:45:37.586Z,19.20
2018-09-28T01:47:12.542Z,18.80
2018-09-28T01:48:48.045Z,24.20
2018-09-28T01:50:23.072Z,20.20
2018-09-28T01:51:58.258Z,19.40
2018-09-28T01:53:34.254Z,22.20
2018-09-28T01:55:12.463Z,23.40
2018-09-28T01:56:49.306Z,15.40
2018-09-28T01:58:25.041Z,20.60
2018-09-28T02:00:00.879Z,26.20
2018-09-28T02:01:38.385Z,26.40
2018-09-28T02:03:16.754Z,22.20
2018-09-28T02:04:52.288Z,18.40
2018-09-28T02:06:27.236Z,30.80
2018-09-28T02:08:03.253Z,25.00
2018-09-28T02:09:38.294Z,28.00
2018-09-28T02:11:13.299Z,26.60
2018-09-28T02:12:48.803Z,23.20
2018-09-28T02:14:24.937Z,25.60
2018-09-28T02:16:00.503Z,24.20
2018-09-28T02:17:35.878Z,21.80
2018-09-28T02:19:11.711Z,21.60
2018-09-28T02:20:47.146Z,22.80
2018-09-28T02:22:23.042Z,19.20
2018-09-28T02:23:58.035Z,23.00
2018-09-28T02:25:33.059Z,26.40
2018-09-28T02:27:08.483Z,24.80
2018-09-28T02:28:43.536Z,20.40
2018-09-28T02:30:18.996Z,25.80
2018-09-28T02:31:55.310Z,25.20
2018-09-28T02:33:30.271Z,18.20
2018-09-28T02:35:05.934Z,28.20
2018-09-28T02:36:40.875Z,17.40
2018-09-28T02:38:16.686Z,20.60
2018-09-28T02:39:52.739Z,26.00
2018-09-28T02:41:29.080Z,26.20
2018-09-28T02:43:04.231Z,23.80
2018-09-28T02:44:39.639Z,19.60
2018-09-28T02:46:15.614Z,22.00
2018-09-28T02:47:50.659Z,24.40
2018-09-28T02:49:25.697Z,22.80
2018-09-28T02:51:00.943Z,24.80
2018-09-28T02:52:36.286Z,22.40
2018-09-28T02:54:11.758Z,19.20
2018-09-28T02:55:47.951Z,21.40
2018-09-28T02:57:23.239Z,24.00
2018-09-28T02:58:59.003Z,21.40
2018-09-28T03:00:34.336Z,17.20
2018-09-28T03:02:10.633Z,25.00
2018-09-28T03:03:46.919Z,28.80
2018-09-28T03:05:25.468Z,22.80
2018-09-28T03:07:00.827Z,16.60
2018-09-28T03:08:36.485Z,19.40
2018-09-28T03:10:11.972Z,23.00
2018-09-28T03:11:47.168Z,23.00
2018-09-28T03:13:22.120Z,27.00
2018-09-28T03:14:57.322Z,22.40
2018-09-28T03:16:33.730Z,26.80
2018-09-28T03:19:58.810Z,19.20
2018-09-28T03:21:35.337Z,21.00
2018-09-28T03:23:10.799Z,21.60
2018-09-28T03:24:47.312Z,18.00
2018-09-28T03:26:22.663Z,21.60
2018-09-28T03:27:57.798Z,24.20
2018-09-28T03:29:33.193Z,24.20
2018-09-28T03:31:08.462Z,25.60
2018-09-28T03:32:43.536Z,25.80
2018-09-28T03:34:18.863Z,25.80
2018-09-28T03:35:54.604Z,27.00
2018-09-28T03:37:29.581Z,22.20
2018-09-28T03:39:06.425Z,25.00
2018-09-28T03:40:41.693Z,27.60
2018-09-28T03:42:17.038Z,22.20
2018-09-28T03:43:52.247Z,26.00
2018-09-28T03:45:27.573Z,23.20
2018-09-28T03:47:02.808Z,19.20
2018-09-28T03:48:38.479Z,20.60
2018-09-28T03:50:13.956Z,24.20
2018-09-28T03:51:49.779Z,21.80
2018-09-28T03:53:24.759Z,23.40
2018-09-28T03:54:59.795Z,25.00
2018-09-28T03:56:36.099Z,25.20
2018-09-28T03:58:11.117Z,21.00
2018-09-28T03:59:47.063Z,15.40
2018-09-28T04:01:22.252Z,18.60
2018-09-28T04:02:57.668Z,26.40
2018-09-28T04:04:33.164Z,21.00
2018-09-28T04:06:08.302Z,21.40
2018-09-28T04:07:45.122Z,26.80
2018-09-28T04:09:21.568Z,16.60
2018-09-28T04:10:57.451Z,21.00
2018-09-28T04:12:32.495Z,23.20
2018-09-28T04:14:08.250Z,26.60
2018-09-28T04:15:43.777Z,18.00
2018-09-28T04:17:18.952Z,26.60
2018-09-28T04:18:55.512Z,22.80
2018-09-28T04:20:30.654Z,22.80
2018-09-28T04:22:06.558Z,23.60
2018-09-28T04:23:41.821Z,23.20
2018-09-28T04:25:16.895Z,24.60
2018-09-28T04:26:52.188Z,19.60
2018-09-28T04:28:28.007Z,21.60
2018-09-28T04:30:09.767Z,24.20
2018-09-28T04:31:45.097Z,23.60
2018-09-28T04:33:20.767Z,21.80
2018-09-28T04:34:58.282Z,24.80
2018-09-28T04:36:33.533Z,22.00
2018-09-28T04:38:08.650Z,25.60
2018-09-28T04:39:44.980Z,24.20
2018-09-28T04:41:20.143Z,21.80
2018-09-28T04:42:57.445Z,23.20
2018-09-28T04:44:33.370Z,24.40
2018-09-28T04:46:09.206Z,24.00
2018-09-28T04:47:44.832Z,22.60
2018-09-28T04:49:20.282Z,21.40
2018-09-28T04:50:56.086Z,22.20
2018-09-28T04:52:31.854Z,20.80
2018-09-28T04:54:08.363Z,22.80
2018-09-28T04:55:45.618Z,20.60
2018-09-28T04:57:20.675Z,24.80
2018-09-28T04:58:56.747Z,24.80
2018-09-28T05:00:31.988Z,24.60
2018-09-28T05:02:11.640Z,27.80
2018-09-28T05:03:48.382Z,25.00
2018-09-28T05:05:23.523Z,24.60
2018-09-28T05:07:00.121Z,25.80
2018-09-28T05:08:38.978Z,20.00
2018-09-28T05:10:15.490Z,25.40
2018-09-28T05:11:54.037Z,27.40
2018-09-28T05:13:30.553Z,26.40
2018-09-28T05:15:08.005Z,28.00
2018-09-28T05:16:44.843Z,28.60
2018-09-28T05:18:22.051Z,25.60
2018-09-28T05:20:00.508Z,17.80
2018-09-28T05:21:40.489Z,24.00
2018-09-28T05:23:16.730Z,28.00
2018-09-28T05:24:56.438Z,16.00
2018-09-28T05:26:33.367Z,18.80
2018-09-28T05:28:09.293Z,25.00
2018-09-28T05:29:51.677Z,22.80
2018-09-28T05:31:30.905Z,25.80
2018-09-28T05:33:08.169Z,25.60
2018-09-28T05:34:44.470Z,22.80
2018-09-28T05:36:21.208Z,26.40
2018-09-28T05:37:59.551Z,25.00
2018-09-28T05:39:35.820Z,28.60
2018-09-28T05:41:12.722Z,25.40
2018-09-28T05:42:48.795Z,26.40
2018-09-28T05:44:25.359Z,30.00
2018-09-28T05:46:03.784Z,28.60
2018-09-28T05:47:44.897Z,26.20
2018-09-28T05:49:22.095Z,24.60
2018-09-28T05:50:59.100Z,30.00
2018-09-28T05:52:39.495Z,30.40
2018-09-28T05:54:15.985Z,30.00
2018-09-28T05:55:52.555Z,28.80
2018-09-28T05:57:28.661Z,23.40
2018-09-28T05:59:10.947Z,28.40
2018-09-28T06:00:51.208Z,15.00
2018-09-28T06:02:32.487Z,30.00
2018-09-28T06:04:15.821Z,30.20
2018-09-28T06:06:05.434Z,25.60
2018-09-28T06:07:50.267Z,33.20
2018-09-28T06:09:27.152Z,30.20
2018-09-28T06:11:04.956Z,26.20
2018-09-28T06:12:40.488Z,31.00
2018-09-28T06:14:18.450Z,30.80
2018-09-28T06:15:55.667Z,33.20
2018-09-28T06:17:31.940Z,31.40
2018-09-28T06:19:10.903Z,27.00
2018-09-28T06:20:49.893Z,27.20
2018-09-28T06:22:27.653Z,30.60
2018-09-28T06:24:04.623Z,32.20
2018-09-28T06:25:40.339Z,33.00
2018-09-28T06:27:19.738Z,33.00
2018-09-28T06:28:57.182Z,31.60
2018-09-28T06:30:33.892Z,33.80
2018-09-28T06:32:14.546Z,33.60
2018-09-28T06:33:50.355Z,32.40
2018-09-28T06:35:26.808Z,33.80
2018-09-28T06:37:07.119Z,36.00
2018-09-28T06:38:42.903Z,35.20
2018-09-28T06:40:20.835Z,37.80
2018-09-28T06:41:59.627Z,35.60
2018-09-28T06:43:37.654Z,36.40
2018-09-28T06:45:17.220Z,34.40
2018-09-28T06:46:57.308Z,33.80
2018-09-28T06:48:35.279Z,31.60
2018-09-28T06:50:19.453Z,45.40
2018-09-28T06:51:57.552Z,34.40
2018-09-28T06:53:34.470Z,37.00
2018-09-28T06:55:10.208Z,34.80
2018-09-28T06:56:46.123Z,37.20
2018-09-28T06:58:22.010Z,29.60
2018-09-28T06:59:57.806Z,36.40
2018-09-28T07:01:33.844Z,35.20
2018-09-28T07:03:09.843Z,32.60
2018-09-28T07:04:46.173Z,33.80
2018-09-28T07:06:22.808Z,30.60
2018-09-28T07:07:59.994Z,31.60
2018-09-28T07:09:36.018Z,25.60
2018-09-28T07:11:13.127Z,33.60
2018-09-28T07:12:49.076Z,33.20
2018-09-28T07:14:27.834Z,35.60
2018-09-28T07:16:03.618Z,34.00
2018-09-28T07:17:39.687Z,33.00
2018-09-28T07:19:15.427Z,34.00
2018-09-28T07:20:53.864Z,35.60
2018-09-28T07:22:30.366Z,38.00
2018-09-28T07:24:06.377Z,36.80
2018-09-28T07:25:42.980Z,34.40
2018-09-28T07:27:20.752Z,39.20
2018-09-28T07:28:58.616Z,34.00
2018-09-28T07:30:38.379Z,39.20
2018-09-28T07:32:15.046Z,39.00
2018-09-28T07:33:52.369Z,33.00
2018-09-28T07:35:30.331Z,36.60
2018-09-28T07:37:09.634Z,39.40
2018-09-28T07:38:46.075Z,41.20
2018-09-28T07:40:22.109Z,31.40
2018-09-28T07:41:58.071Z,33.20
2018-09-28T07:43:33.313Z,30.80
2018-09-28T07:45:08.537Z,36.00
2018-09-28T07:46:45.324Z,36.00
2018-09-28T07:48:22.799Z,33.80
2018-09-28T07:49:58.953Z,34.80
2018-09-28T07:51:38.689Z,40.00
2018-09-28T07:53:14.374Z,34.40
2018-09-28T07:54:52.966Z,33.40
2018-09-28T07:56:28.714Z,36.20
2018-09-28T07:58:06.661Z,37.60
2018-09-28T07:59:45.523Z,31.40
2018-09-28T08:01:21.531Z,35.20
2018-09-28T08:02:57.736Z,36.80
2018-09-28T08:04:34.380Z,36.60
2018-09-28T08:06:12.343Z,31.60
2018-09-28T08:07:49.321Z,36.80
2018-09-28T08:09:25.323Z,32.20
2018-09-28T08:11:00.985Z,38.60
2018-09-28T08:12:37.286Z,36.40
2018-09-28T08:14:14.774Z,34.80
2018-09-28T08:15:52.357Z,32.20
2018-09-28T08:17:30.449Z,34.60
2018-09-28T08:19:14.074Z,29.60
2018-09-28T08:20:50.431Z,36.20
2018-09-28T08:22:26.924Z,38.60
2018-09-28T08:24:03.722Z,34.00
2018-09-28T08:25:38.986Z,31.00
2018-09-28T08:27:16.205Z,33.40
2018-09-28T08:28:53.367Z,33.00
2018-09-28T08:30:36.404Z,33.20
2018-09-28T08:32:11.975Z,25.80
2018-09-28T08:33:48.788Z,32.60
2018-09-28T08:35:31.328Z,33.80
2018-09-28T08:37:08.451Z,33.00
2018-09-28T08:38:44.581Z,24.40
2018-09-28T08:40:22.606Z,27.60
2018-09-28T08:41:59.292Z,35.20
2018-09-28T08:43:34.541Z,29.80
2018-09-28T08:45:23.080Z,34.00
2018-09-28T08:46:59.704Z,34.80
2018-09-28T08:48:38.018Z,33.40
2018-09-28T08:51:55.798Z,36.00
2018-09-28T08:53:33.043Z,33.00
2018-09-28T08:55:23.450Z,34.00
2018-09-28T08:57:00.475Z,30.00
2018-09-28T08:58:39.062Z,34.00
2018-09-28T09:00:16.404Z,31.60
2018-09-28T09:01:55.622Z,33.00
2018-09-28T09:03:35.688Z,30.00
2018-09-28T09:05:14.456Z,28.00
2018-09-28T09:08:34.995Z,33.00
2018-09-28T09:10:16.216Z,24.80
2018-09-28T09:11:55.272Z,33.00
2018-09-28T09:13:32.763Z,28.60
2018-09-28T09:15:11.331Z,28.00
2018-09-28T09:16:50.538Z,30.80
2018-09-28T09:18:29.860Z,27.20
2018-09-28T09:20:10.598Z,24.40
2018-09-28T09:21:48.451Z,10.80
2018-09-28T09:23:32.082Z,22.00
2018-09-28T09:25:15.232Z,30.00
2018-09-28T09:26:57.316Z,26.20
2018-09-28T09:28:35.643Z,25.60
2018-09-28T09:30:14.669Z,22.40
2018-09-28T09:31:54.125Z,25.00
2018-09-28T09:33:31.225Z,18.40
2018-09-28T09:35:07.446Z,18.20
2018-09-28T09:36:44.754Z,21.00
2018-09-28T09:38:20.230Z,24.20
2018-09-28T09:39:59.285Z,15.20
2018-09-28T09:41:36.089Z,19.20
2018-09-28T09:43:12.595Z,16.40
2018-09-28T09:44:51.441Z,16.40
2018-09-28T09:46:29.208Z,15.20
2018-09-28T09:48:04.803Z,18.20
2018-09-28T09:49:42.715Z,16.80
2018-09-28T09:51:20.024Z,18.20
2018-09-28T09:52:57.590Z,19.00
2018-09-28T09:54:35.661Z,15.60
2018-09-28T09:56:12.427Z,13.80
2018-09-28T09:57:50.510Z,13.80
2018-09-28T09:59:26.626Z,15.00
2018-09-28T10:01:06.723Z,18.00
2018-09-28T10:02:49.866Z,16.80
2018-09-28T10:04:27.299Z,15.40
2018-09-28T10:06:02.807Z,15.20
2018-09-28T10:07:41.653Z,12.80
2018-09-28T10:09:17.152Z,14.20
2018-09-28T10:10:56.541Z,13.00
2018-09-28T10:12:33.883Z,10.80
2018-09-28T10:14:09.257Z,7.00
2018-09-28T10:17:54.490Z,13.00
2018-09-28T10:19:30.334Z,15.00
2018-09-28T10:21:06.604Z,9.40
2018-09-28T10:22:42.487Z,12.40
2018-09-28T10:24:18.933Z,12.00
2018-09-28T10:25:56.302Z,12.00
2018-09-28T10:27:31.808Z,13.40
2018-09-28T10:29:07.945Z,7.00
2018-09-28T10:30:45.387Z,5.20
2018-09-28T10:32:22.381Z,8.60
2018-09-28T10:33:59.871Z,8.60
2018-09-28T10:35:36.773Z,7.00
2018-09-28T10:37:12.622Z,10.80
2018-09-28T10:38:50.114Z,10.80
2018-09-28T10:40:26.238Z,11.60
2018-09-28T10:42:04.792Z,9.80
2018-09-28T10:43:44.000Z,8.80
2018-09-28T10:45:21.066Z,13.40
2018-09-28T10:47:00.364Z,15.00
2018-09-28T10:48:36.711Z,12.60
2018-09-28T10:50:14.563Z,0.00
2018-09-28T10:51:55.464Z,9.40
2018-09-28T10:53:32.317Z,21.00
2018-09-28T10:55:12.402Z,12.00
2018-09-28T10:56:57.622Z,8.60
2018-09-28T10:58:39.399Z,12.00
2018-09-28T11:00:24.702Z,8.20
2018-09-28T11:02:29.342Z,7.80
2018-09-28T11:04:33.285Z,9.60
2018-09-28T11:06:19.211Z,10.00
2018-09-28T11:10:34.189Z,6.60
2018-09-28T11:12:18.582Z,9.80
2018-09-28T11:14:14.635Z,9.00
2018-09-28T11:16:26.928Z,9.40
2018-09-28T11:18:13.572Z,9.20
2018-09-28T11:19:54.277Z,9.00
2018-09-28T11:21:38.603Z,11.40
2018-09-28T11:23:16.016Z,7.80
2018-09-28T11:24:53.254Z,9.60
2018-09-28T11:26:31.596Z,9.20
2018-09-28T11:28:07.396Z,9.20
2018-09-28T11:29:44.095Z,7.00
2018-09-28T11:31:20.280Z,10.40
2018-09-28T11:33:03.149Z,7.80
2018-09-28T11:34:41.450Z,8.60
2018-09-28T11:36:18.646Z,7.00
2018-09-28T11:37:55.396Z,3.60
2018-09-28T11:39:32.639Z,9.00
2018-09-28T11:41:10.869Z,10.00
2018-09-28T11:42:47.939Z,10.00
2018-09-28T11:44:25.312Z,8.20
2018-09-28T11:46:00.740Z,7.80
2018-09-28T11:47:43.615Z,8.20
2018-09-28T11:49:19.366Z,9.20
2018-09-28T11:50:55.496Z,6.00
2018-09-28T11:52:34.148Z,3.00
2018-09-28T11:54:10.247Z,6.00
2018-09-28T11:55:52.652Z,3.60
2018-09-28T11:57:32.842Z,3.00
2018-09-28T11:59:18.464Z,3.40
2018-09-28T12:01:37.939Z,2.20
2018-09-28T12:03:23.593Z,1.40
2018-09-28T12:05:12.857Z,3.00
2018-09-28T12:06:59.016Z,0.00
2018-09-28T12:10:29.115Z,1.00
2018-09-28T12:12:09.949Z,4.00
2018-09-28T12:13:45.641Z,0.00
2018-09-28T12:15:23.215Z,0.40
2018-09-28T12:17:00.938Z,1.00
2018-09-28T12:18:40.197Z,1.00
2018-09-28T12:20:20.251Z,2.60
2018-09-28T12:22:02.309Z,1.00
2018-09-28T12:23:39.236Z,1.00
2018-09-28T12:25:14.512Z,0.40
2018-09-28T12:26:52.715Z,1.40
2018-09-28T12:28:29.737Z,1.00
2018-09-28T12:30:12.644Z,1.00
2018-09-28T12:31:51.335Z,1.00
2018-09-28T12:33:30.941Z,0.60
2018-09-28T12:35:14.733Z,0.00
2018-09-28T12:36:54.270Z,0.80
2018-09-28T12:38:34.560Z,1.00
2018-09-28T12:40:12.370Z,0.00
2018-09-28T12:41:48.454Z,0.00
2018-09-28T12:43:35.621Z,0.60
2018-09-28T12:45:18.611Z,0.80
2018-09-28T12:46:57.682Z,1.00
2018-09-28T12:48:37.615Z,1.00
2018-09-28T12:50:16.362Z,0.60
2018-09-28T12:52:00.178Z,0.80
2018-09-28T12:53:42.729Z,0.20
2018-09-28T12:55:29.879Z,1.00
2018-09-28T12:57:15.984Z,1.00
2018-09-28T12:58:59.268Z,1.00
2018-09-28T13:00:39.161Z,0.20
2018-09-28T13:02:21.321Z,1.00
2018-09-28T13:04:09.138Z,0.40
2018-09-28T13:05:45.083Z,0.00
2018-09-28T13:07:31.787Z,1.80
2018-09-28T13:09:08.945Z,1.00
2018-09-28T13:10:51.205Z,2.20
2018-09-28T13:13:56.100Z,2.00
2018-09-28T13:15:37.780Z,1.00
2018-09-28T13:17:20.620Z,1.00
2018-09-28T13:19:00.939Z,1.00
2018-09-28T13:20:40.154Z,0.00
2018-09-28T13:22:24.677Z,0.60
2018-09-28T13:24:09.771Z,0.80
2018-09-28T13:25:50.554Z,0.60
2018-09-28T13:27:31.520Z,1.00
2018-09-28T13:29:13.330Z,1.00
2018-09-28T13:30:52.289Z,1.80
2018-09-28T13:32:31.604Z,0.60
2018-09-28T13:34:13.892Z,1.00
2018-09-28T13:35:56.540Z,1.00
2018-09-28T13:37:36.472Z,2.20
2018-09-28T13:39:12.232Z,1.00
2018-09-28T13:40:49.480Z,0.00
2018-09-28T13:42:25.986Z,1.00
2018-09-28T13:44:02.466Z,0.00
2018-09-28T13:45:42.704Z,2.20
2018-09-28T13:47:18.645Z,1.00
2018-09-28T13:48:57.537Z,3.00
2018-09-28T13:50:34.620Z,1.00
2018-09-28T13:52:20.944Z,1.00
2018-09-28T13:53:59.103Z,1.80
2018-09-28T13:57:22.996Z,3.00
2018-09-28T13:59:02.193Z,3.40
2018-09-28T14:00:42.336Z,1.00
2018-09-28T14:02:19.031Z,0.00
2018-09-28T14:04:01.765Z,2.60
2018-09-28T14:07:42.835Z,2.20
2018-09-28T14:09:22.040Z,3.60
2018-09-28T14:11:03.751Z,1.00
2018-09-28T14:14:41.277Z,3.00
2018-09-28T14:16:18.614Z,2.60
2018-09-28T14:17:58.664Z,3.00
2018-09-28T14:19:34.671Z,3.00
2018-09-28T14:21:11.765Z,1.40
2018-09-28T14:22:47.427Z,3.00
2018-09-28T14:24:22.582Z,1.00
2018-09-28T14:26:01.070Z,1.40
2018-09-28T14:27:41.117Z,1.00
2018-09-28T14:29:20.103Z,3.00
2018-09-28T14:30:58.839Z,1.80
2018-09-28T14:32:37.624Z,2.60
2018-09-28T14:34:16.327Z,3.00
2018-09-28T14:35:56.118Z,3.00
2018-09-28T14:37:39.174Z,1.80
2018-09-28T14:39:21.131Z,1.00
2018-09-28T14:41:09.631Z,3.00
2018-09-28T14:42:48.528Z,3.20
2018-09-28T14:44:30.335Z,0.80
2018-09-28T14:48:03.507Z,0.80
2018-09-28T14:50:16.263Z,3.00
2018-09-28T14:52:00.743Z,3.60
2018-09-28T14:53:41.279Z,1.00
2018-09-28T14:55:17.757Z,0.60
2018-09-28T14:56:54.589Z,3.00
2018-09-28T14:58:32.811Z,2.60
2018-09-28T15:00:10.398Z,0.00
2018-09-28T15:03:32.323Z,3.00
2018-09-28T15:05:08.287Z,1.00
2018-09-28T15:06:46.810Z,0.00
2018-09-28T15:08:23.223Z,3.00
2018-09-28T15:10:03.018Z,1.40
2018-09-28T15:11:39.251Z,4.80
2018-09-28T15:13:17.608Z,0.60
2018-09-28T15:14:59.191Z,0.40
2018-09-28T15:16:46.410Z,1.80
2018-09-28T15:18:23.683Z,3.80
2018-09-28T15:20:02.371Z,4.00
2018-09-28T15:21:41.270Z,2.20
2018-09-28T15:23:23.533Z,1.00
2018-09-28T15:25:03.116Z,1.00
2018-09-28T15:26:43.876Z,3.00
2018-09-28T15:28:25.363Z,1.40
2018-09-28T15:30:05.473Z,1.00
2018-09-28T15:31:47.815Z,0.60
2018-09-28T15:33:24.704Z,2.60
2018-09-28T15:35:07.387Z,1.00
2018-09-28T15:36:47.661Z,2.60
2018-09-28T15:38:25.082Z,3.00
2018-09-28T15:40:07.754Z,1.00
2018-09-28T15:41:53.651Z,3.60
2018-09-28T15:43:33.818Z,1.00
2018-09-28T15:47:05.718Z,1.00
2018-09-28T15:48:43.101Z,0.60
2018-09-28T15:50:19.504Z,1.00
2018-09-28T15:51:55.532Z,1.00
2018-09-28T15:53:31.224Z,1.00
2018-09-28T15:55:10.610Z,4.00
2018-09-28T15:56:48.392Z,1.00
2018-09-28T15:58:26.834Z,1.00
2018-09-28T16:00:06.518Z,0.00
2018-09-28T16:01:47.478Z,1.00
2018-09-28T16:03:31.778Z,0.00
2018-09-28T16:05:08.426Z,1.00
2018-09-28T16:06:52.117Z,0.20
2018-09-28T16:08:32.063Z,0.40
2018-09-28T16:10:11.781Z,1.00
2018-09-28T16:11:58.137Z,0.00
2018-09-28T16:13:39.579Z,0.80
2018-09-28T16:15:26.097Z,0.00
2018-09-28T16:17:11.692Z,0.00
2018-09-28T16:18:50.685Z,0.00
2018-09-28T16:20:30.641Z,3.00
2018-09-28T16:22:08.296Z,0.00
2018-09-28T16:23:49.029Z,1.00
2018-09-28T16:25:30.050Z,1.00
2018-09-28T16:27:18.274Z,1.00
2018-09-28T16:28:59.336Z,1.40
2018-09-28T16:30:37.851Z,0.60
2018-09-28T16:32:18.542Z,0.60
2018-09-28T16:33:55.925Z,0.00
2018-09-28T16:35:34.345Z,1.00
2018-09-28T16:37:15.449Z,0.00
2018-09-28T16:38:53.870Z,0.00
2018-09-28T16:40:31.777Z,0.40
2018-09-28T16:42:10.458Z,0.00
2018-09-28T16:43:47.668Z,0.00
2018-09-28T16:45:32.869Z,1.00
2018-09-28T16:47:18.146Z,1.00
2018-09-28T16:49:00.962Z,-0.20
2018-09-28T16:50:39.559Z,0.40
2018-09-28T16:52:18.766Z,0.00
2018-09-28T16:54:01.611Z,0.00
2018-09-28T16:55:43.531Z,0.00
2018-09-28T16:57:23.397Z,0.00
2018-09-28T16:59:08.158Z,0.00
2018-09-28T17:01:01.728Z,0.00
2018-09-28T17:03:18.997Z,0.00
2018-09-28T17:07:44.446Z,0.00
2018-09-28T17:09:28.473Z,0.40
2018-09-28T17:11:10.863Z,0.00
2018-09-28T17:12:55.597Z,0.00
2018-09-28T17:14:40.496Z,0.00
2018-09-28T17:16:36.002Z,0.00
2018-09-28T17:18:21.712Z,0.00
2018-09-28T17:20:19.647Z,0.00
2018-09-28T17:21:57.599Z,0.00
2018-09-28T17:23:40.884Z,0.00
2018-09-28T17:25:31.463Z,0.00
2018-09-28T17:27:07.423Z,0.00
2018-09-28T17:28:43.008Z,0.00
2018-09-28T17:30:23.046Z,1.00
2018-09-28T17:32:08.754Z,0.00
2018-09-28T17:33:46.284Z,1.00
2018-09-28T17:35:28.054Z,3.60
2018-09-28T17:37:08.366Z,16.80
2018-09-28T17:38:45.080Z,8.40
2018-09-28T17:40:24.505Z,4.00
2018-09-28T17:42:13.988Z,4.80
2018-09-28T17:43:52.218Z,2.20
2018-09-28T17:45:32.325Z,8.60
2018-09-28T17:47:11.339Z,4.80
2018-09-28T17:48:51.134Z,1.40
2018-09-28T17:50:31.965Z,3.60
2018-09-28T17:52:11.868Z,4.00
2018-09-28T17:53:57.047Z,4.00
2018-09-28T17:55:35.821Z,7.00
2018-09-28T17:58:48.082Z,6.40
2018-09-28T18:00:28.984Z,5.20
2018-09-28T18:02:11.870Z,6.80
2018-09-28T18:03:54.720Z,3.80
2018-09-28T18:05:32.106Z,13.00
2018-09-28T18:07:21.330Z,13.40
2018-09-28T18:09:01.174Z,12.60
2018-09-28T18:10:38.221Z,9.20
2018-09-28T18:12:18.456Z,23.80
2018-09-28T18:13:57.134Z,19.40
2018-09-28T18:15:39.271Z,21.40
2018-09-28T18:17:23.698Z,22.40
2018-09-28T18:19:04.411Z,13.60
2018-09-28T18:20:44.100Z,28.40
2018-09-28T18:22:26.487Z,35.40
2018-09-28T18:24:06.553Z,18.60
2018-09-28T18:25:43.012Z,11.20
2018-09-28T18:27:21.589Z,7.80
2018-09-28T18:30:46.633Z,17.00
2018-09-28T18:32:47.396Z,4.80
2018-09-28T18:34:42.371Z,15.00
2018-09-28T18:36:21.773Z,5.40
2018-09-28T18:38:06.093Z,3.40
2018-09-28T18:39:43.859Z,3.00
2018-09-28T18:41:28.636Z,5.60
2018-09-28T18:43:05.856Z,20.80
2018-09-28T18:44:43.342Z,34.40
2018-09-28T18:46:22.678Z,1.00
2018-09-28T18:47:59.608Z,2.60
2018-09-28T18:49:38.035Z,3.00
2018-09-28T18:51:16.186Z,1.00
2018-09-28T18:52:57.252Z,2.20
2018-09-28T18:54:45.267Z,1.00
2018-09-28T18:56:59.858Z,6.00
2018-09-28T18:58:37.164Z,1.00
2018-09-28T19:00:15.291Z,1.00
2018-09-28T19:01:53.476Z,1.00
2018-09-28T19:05:19.167Z,2.60
2018-09-28T19:07:01.879Z,1.40
2018-09-28T19:08:39.797Z,0.00
2018-09-28T19:10:30.513Z,0.80
2018-09-28T19:12:16.746Z,1.00
2018-09-28T19:14:01.800Z,0.00
2018-09-28T19:15:40.882Z,2.60
2018-09-28T19:17:33.168Z,1.40
2018-09-28T19:19:17.925Z,7.00
2018-09-28T19:21:00.592Z,4.40
2018-09-28T19:22:43.057Z,8.20
2018-09-28T19:24:24.309Z,3.00
2018-09-28T19:26:02.784Z,1.40
2018-09-28T19:27:38.041Z,1.00
2018-09-28T19:29:19.588Z,1.00
2018-09-28T19:30:58.874Z,3.00
2018-09-28T19:32:34.601Z,3.00
2018-09-28T19:34:14.604Z,0.20
2018-09-28T19:35:53.248Z,0.20
2018-09-28T19:37:30.671Z,0.00
2018-09-28T19:39:12.489Z,0.00
2018-09-28T19:41:03.252Z,1.00
2018-09-28T19:42:52.021Z,3.00
2018-09-28T19:44:34.605Z,1.80
2018-09-28T19:46:20.183Z,11.80
2018-09-28T19:48:02.041Z,3.00
2018-09-28T19:49:48.580Z,2.60
2018-09-28T19:51:30.894Z,0.80
2018-09-28T19:53:14.578Z,3.00
2018-09-28T19:55:00.219Z,4.40
2018-09-28T19:56:40.325Z,3.20
2018-09-28T19:58:17.796Z,3.40
2018-09-28T19:59:57.821Z,1.00
2018-09-28T20:01:43.558Z,0.00
2018-09-28T20:03:39.521Z,0.20
2018-09-28T20:05:26.738Z,2.60
2018-09-28T20:07:19.436Z,4.00
2018-09-28T20:09:11.336Z,3.80
2018-09-28T20:10:57.451Z,7.00
2018-09-28T20:12:42.659Z,3.80
2018-09-28T20:14:24.487Z,3.80
2018-09-28T20:16:09.967Z,3.20
2018-09-28T20:17:53.126Z,3.20
2018-09-28T20:19:34.192Z,3.40
2018-09-28T20:21:30.819Z,3.00
2018-09-28T20:24:57.282Z,1.80
2018-09-28T20:26:39.349Z,2.20
2018-09-28T20:28:18.116Z,1.00
2018-09-28T20:29:56.615Z,2.60
2018-09-28T20:31:40.873Z,5.20
2018-09-28T20:33:18.758Z,3.60
2018-09-28T20:34:58.003Z,1.80
2018-09-28T20:36:38.452Z,1.00
2018-09-28T20:38:14.873Z,0.60
2018-09-28T20:39:56.594Z,1.80
2018-09-28T20:41:36.346Z,2.20
2018-09-28T20:43:18.608Z,1.00
2018-09-28T20:44:57.891Z,0.00
2018-09-28T20:46:40.743Z,3.40
2018-09-28T20:48:21.578Z,3.00
2018-09-28T20:50:05.993Z,0.00
2018-09-28T20:51:44.121Z,3.00
2018-09-28T20:53:21.350Z,1.00
2018-09-28T20:54:56.433Z,0.40
2018-09-28T20:56:35.126Z,0.60
2018-09-28T20:58:14.195Z,0.00
2018-09-28T20:59:53.515Z,5.20
2018-09-28T21:01:30.003Z,4.40
2018-09-28T21:03:09.627Z,3.60
2018-09-28T21:04:44.985Z,1.00
2018-09-28T21:06:22.066Z,1.00
2018-09-28T21:08:00.695Z,0.00
2018-09-28T21:09:37.353Z,1.00
2018-09-28T21:11:16.224Z,4.00
2018-09-28T21:12:54.668Z,1.80
2018-09-28T21:14:32.303Z,9.00
2018-09-28T21:16:12.316Z,23.60
2018-09-28T21:17:48.139Z,3.60
2018-09-28T21:19:29.663Z,3.00
2018-09-28T21:21:06.346Z,0.00
2018-09-28T21:22:41.692Z,0.80
2018-09-28T21:24:17.334Z,1.80
2018-09-28T21:25:53.731Z,1.00
2018-09-28T21:27:33.324Z,0.00
2018-09-28T21:29:12.065Z,1.00
2018-09-28T21:30:51.980Z,1.00
2018-09-28T21:32:29.343Z,1.40
2018-09-28T21:34:08.700Z,0.00
2018-09-28T21:35:51.252Z,1.00
2018-09-28T21:37:28.580Z,1.00
2018-09-28T21:39:11.638Z,0.20
2018-09-28T21:40:52.540Z,0.00
2018-09-28T21:42:31.661Z,0.00
2018-09-28T21:44:08.670Z,1.00
2018-09-28T21:45:45.848Z,0.00
2018-09-28T21:47:21.066Z,0.00
2018-09-28T21:49:00.534Z,0.00
2018-09-28T21:50:36.019Z,0.00
2018-09-28T21:52:13.737Z,0.00
2018-09-28T21:53:51.666Z,0.00
2018-09-28T21:55:28.593Z,0.00
2018-09-28T21:57:04.935Z,0.80
2018-09-28T21:58:42.761Z,0.20
2018-09-28T22:00:21.487Z,0.00
2018-09-28T22:02:00.151Z,0.00
2018-09-28T22:03:39.960Z,0.00
2018-09-28T22:05:18.759Z,0.80
2018-09-28T22:06:55.918Z,1.00
2018-09-28T22:08:35.091Z,1.00
2018-09-28T22:10:12.489Z,0.00